sensor_id;sensor_type;location;lat;lon;timestamp;P1;durP1;ratioP1;P2;durP2;ratioP2
47335;SDS011;33068;51.990;5.926;2023-05-10T00:01:43;66.32;;;27.00;;
47335;SDS011;33068;51.990;5.926;2023-05-10T00:04:11;69.88;;;28.13;;
47335;SDS011;33068;51.990;5.926;2023-05-10T00:06:38;69.53;;;28.17;;
47335;SDS011;33068;51.990;5.926;2023-05-10T00:09:05;70.20;;;28.45;;
47335;SDS011;33068;51.990;5.926;2023-05-10T00:11:32;73.55;;;29.90;;
47335;SDS011;33068;51.990;5.926;2023-05-10T00:13:59;81.03;;;31.17;;
47335;SDS011;33068;51.990;5.926;2023-05-10T00:16:26;69.30;;;28.75;;
47335;SDS011;33068;51.990;5.926;2023-05-10T00:18:54;79.22;;;31.10;;
47335;SDS011;33068;51.990;5.926;2023-05-10T00:21:22;84.20;;;32.10;;
47335;SDS011;33068;51.990;5.926;2023-05-10T00:23:49;84.63;;;32.88;;
47335;SDS011;33068;51.990;5.926;2023-05-10T00:26:16;99.00;;;35.88;;
47335;SDS011;33068;51.990;5.926;2023-05-10T00:28:49;103.45;;;35.50;;
47335;SDS011;33068;51.990;5.926;2023-05-10T00:31:17;109.28;;;36.33;;
47335;SDS011;33068;51.990;5.926;2023-05-10T00:33:44;110.80;;;38.28;;
47335;SDS011;33068;51.990;5.926;2023-05-10T00:36:11;106.35;;;35.33;;
47335;SDS011;33068;51.990;5.926;2023-05-10T00:38:41;110.80;;;37.45;;
47335;SDS011;33068;51.990;5.926;2023-05-10T00:41:08;105.50;;;37.75;;
47335;SDS011;33068;51.990;5.926;2023-05-10T00:43:37;114.35;;;36.25;;
47335;SDS011;33068;51.990;5.926;2023-05-10T00:46:05;117.72;;;38.15;;
47335;SDS011;33068;51.990;5.926;2023-05-10T00:48:32;124.85;;;42.10;;
47335;SDS011;33068;51.990;5.926;2023-05-10T00:51:00;130.38;;;41.55;;
47335;SDS011;33068;51.990;5.926;2023-05-10T00:53:27;135.43;;;43.53;;
47335;SDS011;33068;51.990;5.926;2023-05-10T00:55:59;132.77;;;44.42;;
47335;SDS011;33068;51.990;5.926;2023-05-10T00:58:27;143.70;;;48.58;;
47335;SDS011;33068;51.990;5.926;2023-05-10T02:50:33;149.23;;;44.05;;
47335;SDS011;33068;51.990;5.926;2023-05-10T02:53:03;150.90;;;44.30;;
47335;SDS011;33068;51.990;5.926;2023-05-10T02:58:05;164.80;;;47.08;;
47335;SDS011;33068;51.990;5.926;2023-05-10T03:00:32;172.13;;;47.83;;
47335;SDS011;33068;51.990;5.926;2023-05-10T03:03:01;165.25;;;49.00;;
47335;SDS011;33068;51.990;5.926;2023-05-10T03:05:29;188.93;;;51.25;;
47335;SDS011;33068;51.990;5.926;2023-05-10T03:07:59;170.60;;;47.72;;
47335;SDS011;33068;51.990;5.926;2023-05-10T03:10:29;164.27;;;50.53;;
47335;SDS011;33068;51.990;5.926;2023-05-10T03:13:01;182.50;;;49.97;;
47335;SDS011;33068;51.990;5.926;2023-05-10T03:15:42;169.77;;;49.85;;
47335;SDS011;33068;51.990;5.926;2023-05-10T03:18:21;182.48;;;50.88;;
47335;SDS011;33068;51.990;5.926;2023-05-10T03:20:49;163.18;;;51.95;;
47335;SDS011;33068;51.990;5.926;2023-05-10T03:23:22;178.98;;;53.38;;
47335;SDS011;33068;51.990;5.926;2023-05-10T03:25:53;162.88;;;53.10;;
47335;SDS011;33068;51.990;5.926;2023-05-10T03:28:22;180.55;;;53.03;;
47335;SDS011;33068;51.990;5.926;2023-05-10T03:30:51;183.70;;;53.40;;
47335;SDS011;33068;51.990;5.926;2023-05-10T03:33:19;188.20;;;53.30;;
47335;SDS011;33068;51.990;5.926;2023-05-10T03:35:47;176.90;;;52.33;;
47335;SDS011;33068;51.990;5.926;2023-05-10T03:38:14;164.68;;;54.20;;
47335;SDS011;33068;51.990;5.926;2023-05-10T03:43:08;151.55;;;50.10;;
47335;SDS011;33068;51.990;5.926;2023-05-10T03:45:37;153.38;;;51.40;;
47335;SDS011;33068;51.990;5.926;2023-05-10T03:48:04;146.70;;;51.50;;
47335;SDS011;33068;51.990;5.926;2023-05-10T03:50:32;169.98;;;52.28;;
47335;SDS011;33068;51.990;5.926;2023-05-10T03:52:59;160.20;;;50.30;;
47335;SDS011;33068;51.990;5.926;2023-05-10T03:55:27;163.90;;;53.05;;
47335;SDS011;33068;51.990;5.926;2023-05-10T03:57:55;143.05;;;50.80;;
47335;SDS011;33068;51.990;5.926;2023-05-10T04:00:23;156.00;;;52.10;;
47335;SDS011;33068;51.990;5.926;2023-05-10T04:02:54;151.77;;;50.80;;
47335;SDS011;33068;51.990;5.926;2023-05-10T04:05:22;160.50;;;51.33;;
47335;SDS011;33068;51.990;5.926;2023-05-10T04:07:51;138.30;;;49.88;;
47335;SDS011;33068;51.990;5.926;2023-05-10T04:10:18;148.95;;;48.42;;
47335;SDS011;33068;51.990;5.926;2023-05-10T04:12:45;131.20;;;50.13;;
47335;SDS011;33068;51.990;5.926;2023-05-10T04:15:12;144.30;;;48.28;;
47335;SDS011;33068;51.990;5.926;2023-05-10T04:17:40;132.98;;;47.42;;
47335;SDS011;33068;51.990;5.926;2023-05-10T04:20:09;129.68;;;47.42;;
47335;SDS011;33068;51.990;5.926;2023-05-10T04:22:36;139.38;;;45.58;;
47335;SDS011;33068;51.990;5.926;2023-05-10T04:25:04;139.15;;;47.22;;
47335;SDS011;33068;51.990;5.926;2023-05-10T04:27:32;129.68;;;44.15;;
47335;SDS011;33068;51.990;5.926;2023-05-10T04:29:59;135.52;;;45.35;;
47335;SDS011;33068;51.990;5.926;2023-05-10T04:32:26;121.93;;;46.40;;
47335;SDS011;33068;51.990;5.926;2023-05-10T04:34:53;135.77;;;45.28;;
47335;SDS011;33068;51.990;5.926;2023-05-10T04:37:21;130.25;;;45.13;;
47335;SDS011;33068;51.990;5.926;2023-05-10T04:39:48;122.72;;;44.38;;
47335;SDS011;33068;51.990;5.926;2023-05-10T04:42:15;118.32;;;42.83;;
47335;SDS011;33068;51.990;5.926;2023-05-10T04:44:42;130.05;;;45.47;;
47335;SDS011;33068;51.990;5.926;2023-05-10T04:47:09;127.93;;;44.28;;
47335;SDS011;33068;51.990;5.926;2023-05-10T04:49:38;134.20;;;43.75;;
47335;SDS011;33068;51.990;5.926;2023-05-10T04:52:05;132.75;;;45.15;;
47335;SDS011;33068;51.990;5.926;2023-05-10T04:54:33;134.23;;;44.55;;
47335;SDS011;33068;51.990;5.926;2023-05-10T04:57:00;123.93;;;42.85;;
47335;SDS011;33068;51.990;5.926;2023-05-10T04:59:27;133.95;;;43.80;;
47335;SDS011;33068;51.990;5.926;2023-05-10T05:01:54;131.20;;;45.80;;
47335;SDS011;33068;51.990;5.926;2023-05-10T05:04:21;154.30;;;43.90;;
47335;SDS011;33068;51.990;5.926;2023-05-10T05:06:49;125.68;;;42.97;;
47335;SDS011;33068;51.990;5.926;2023-05-10T05:09:16;139.95;;;45.08;;
47335;SDS011;33068;51.990;5.926;2023-05-10T05:11:44;120.05;;;42.95;;
47335;SDS011;33068;51.990;5.926;2023-05-10T05:14:11;121.90;;;43.13;;
47335;SDS011;33068;51.990;5.926;2023-05-10T05:16:38;133.48;;;44.33;;
47335;SDS011;33068;51.990;5.926;2023-05-10T05:19:05;134.48;;;44.85;;
47335;SDS011;33068;51.990;5.926;2023-05-10T05:21:32;128.32;;;43.60;;
47335;SDS011;33068;51.990;5.926;2023-05-10T05:23:59;119.30;;;43.60;;
47335;SDS011;33068;51.990;5.926;2023-05-10T05:26:26;129.98;;;44.47;;
47335;SDS011;33068;51.990;5.926;2023-05-10T05:28:55;123.20;;;41.95;;
47335;SDS011;33068;51.990;5.926;2023-05-10T05:31:22;121.90;;;44.33;;
47335;SDS011;33068;51.990;5.926;2023-05-10T05:33:49;124.03;;;42.38;;
47335;SDS011;33068;51.990;5.926;2023-05-10T05:36:16;120.45;;;43.78;;
47335;SDS011;33068;51.990;5.926;2023-05-10T05:38:44;112.70;;;42.15;;
47335;SDS011;33068;51.990;5.926;2023-05-10T05:41:11;119.57;;;43.03;;
47335;SDS011;33068;51.990;5.926;2023-05-10T05:43:38;115.35;;;40.28;;
47335;SDS011;33068;51.990;5.926;2023-05-10T05:46:07;115.32;;;42.53;;
47335;SDS011;33068;51.990;5.926;2023-05-10T05:48:34;115.45;;;41.90;;
47335;SDS011;33068;51.990;5.926;2023-05-10T05:51:01;107.75;;;40.67;;
47335;SDS011;33068;51.990;5.926;2023-05-10T05:53:28;109.65;;;39.65;;
47335;SDS011;33068;51.990;5.926;2023-05-10T05:55:55;101.82;;;40.10;;
47335;SDS011;33068;51.990;5.926;2023-05-10T05:58:23;104.07;;;38.20;;
47335;SDS011;33068;51.990;5.926;2023-05-10T06:00:51;101.72;;;39.10;;
47335;SDS011;33068;51.990;5.926;2023-05-10T06:03:19;108.47;;;40.53;;
47335;SDS011;33068;51.990;5.926;2023-05-10T06:05:46;109.78;;;38.20;;
47335;SDS011;33068;51.990;5.926;2023-05-10T06:08:13;100.90;;;40.05;;
47335;SDS011;33068;51.990;5.926;2023-05-10T06:10:40;102.82;;;39.13;;
47335;SDS011;33068;51.990;5.926;2023-05-10T06:13:07;103.70;;;36.50;;
47335;SDS011;33068;51.990;5.926;2023-05-10T06:15:35;115.32;;;37.88;;
47335;SDS011;33068;51.990;5.926;2023-05-10T06:18:02;99.47;;;38.05;;
47335;SDS011;33068;51.990;5.926;2023-05-10T06:20:30;104.50;;;38.08;;
47335;SDS011;33068;51.990;5.926;2023-05-10T06:22:57;98.63;;;37.75;;
47335;SDS011;33068;51.990;5.926;2023-05-10T06:25:24;99.47;;;36.95;;
47335;SDS011;33068;51.990;5.926;2023-05-10T06:27:51;91.53;;;37.15;;
47335;SDS011;33068;51.990;5.926;2023-05-10T06:30:23;98.25;;;39.90;;
47335;SDS011;33068;51.990;5.926;2023-05-10T06:32:53;93.32;;;38.20;;
47335;SDS011;33068;51.990;5.926;2023-05-10T06:35:20;93.55;;;39.03;;
47335;SDS011;33068;51.990;5.926;2023-05-10T06:37:49;115.70;;;39.78;;
47335;SDS011;33068;51.990;5.926;2023-05-10T06:40:16;87.68;;;37.30;;
47335;SDS011;33068;51.990;5.926;2023-05-10T06:42:44;112.07;;;39.20;;
47335;SDS011;33068;51.990;5.926;2023-05-10T06:45:11;94.40;;;35.78;;
47335;SDS011;33068;51.990;5.926;2023-05-10T06:47:39;109.20;;;37.20;;
47335;SDS011;33068;51.990;5.926;2023-05-10T06:50:07;101.82;;;37.47;;
47335;SDS011;33068;51.990;5.926;2023-05-10T06:52:34;99.85;;;38.17;;
47335;SDS011;33068;51.990;5.926;2023-05-10T06:55:03;108.88;;;39.17;;
47335;SDS011;33068;51.990;5.926;2023-05-10T06:57:31;113.60;;;40.28;;
47335;SDS011;33068;51.990;5.926;2023-05-10T06:59:58;107.10;;;40.80;;
47335;SDS011;33068;51.990;5.926;2023-05-10T07:02:25;107.00;;;41.15;;
47335;SDS011;33068;51.990;5.926;2023-05-10T07:04:52;107.43;;;40.67;;
47335;SDS011;33068;51.990;5.926;2023-05-10T07:07:19;103.03;;;41.35;;
47335;SDS011;33068;51.990;5.926;2023-05-10T07:09:46;101.28;;;40.40;;
47335;SDS011;33068;51.990;5.926;2023-05-10T07:12:16;114.32;;;43.28;;
47335;SDS011;33068;51.990;5.926;2023-05-10T07:14:43;110.68;;;42.90;;
47335;SDS011;33068;51.990;5.926;2023-05-10T07:17:10;101.38;;;42.42;;
47335;SDS011;33068;51.990;5.926;2023-05-10T07:19:37;98.50;;;41.63;;
47335;SDS011;33068;51.990;5.926;2023-05-10T07:29:27;101.75;;;41.60;;
47335;SDS011;33068;51.990;5.926;2023-05-10T07:36:48;95.97;;;39.65;;
47335;SDS011;33068;51.990;5.926;2023-05-10T07:39:15;96.22;;;39.75;;
47335;SDS011;33068;51.990;5.926;2023-05-10T07:41:42;108.45;;;43.17;;
47335;SDS011;33068;51.990;5.926;2023-05-10T07:46:38;101.75;;;40.08;;
47335;SDS011;33068;51.990;5.926;2023-05-10T07:49:05;100.05;;;39.60;;
47335;SDS011;33068;51.990;5.926;2023-05-10T07:51:32;96.63;;;39.42;;
47335;SDS011;33068;51.990;5.926;2023-05-10T07:53:59;105.78;;;40.05;;
47335;SDS011;33068;51.990;5.926;2023-05-10T07:56:28;87.80;;;37.85;;
47335;SDS011;33068;51.990;5.926;2023-05-10T07:58:57;90.35;;;37.30;;
47335;SDS011;33068;51.990;5.926;2023-05-10T08:01:25;93.53;;;38.75;;
47335;SDS011;33068;51.990;5.926;2023-05-10T08:03:56;85.47;;;36.20;;
47335;SDS011;33068;51.990;5.926;2023-05-10T08:06:23;84.70;;;34.75;;
47335;SDS011;33068;51.990;5.926;2023-05-10T08:08:51;84.20;;;33.88;;
47335;SDS011;33068;51.990;5.926;2023-05-10T08:11:19;83.53;;;33.65;;
47335;SDS011;33068;51.990;5.926;2023-05-10T08:13:47;86.53;;;34.97;;
47335;SDS011;33068;51.990;5.926;2023-05-10T08:16:15;86.15;;;33.90;;
47335;SDS011;33068;51.990;5.926;2023-05-10T08:18:43;86.15;;;35.70;;
47335;SDS011;33068;51.990;5.926;2023-05-10T08:21:13;71.63;;;32.33;;
47335;SDS011;33068;51.990;5.926;2023-05-10T08:23:40;64.05;;;30.05;;
47335;SDS011;33068;51.990;5.926;2023-05-10T08:26:08;71.18;;;30.85;;
47335;SDS011;33068;51.990;5.926;2023-05-10T08:28:35;75.28;;;31.70;;
47335;SDS011;33068;51.990;5.926;2023-05-10T08:31:02;65.55;;;30.90;;
47335;SDS011;33068;51.990;5.926;2023-05-10T08:33:30;68.50;;;30.02;;
47335;SDS011;33068;51.990;5.926;2023-05-10T08:35:57;71.22;;;29.50;;
47335;SDS011;33068;51.990;5.926;2023-05-10T08:38:25;73.15;;;31.02;;
47335;SDS011;33068;51.990;5.926;2023-05-10T08:40:53;64.93;;;30.27;;
47335;SDS011;33068;51.990;5.926;2023-05-10T08:43:24;59.75;;;27.45;;
47335;SDS011;33068;51.990;5.926;2023-05-10T08:45:54;52.75;;;26.15;;
47335;SDS011;33068;51.990;5.926;2023-05-10T08:48:22;58.25;;;26.30;;
47335;SDS011;33068;51.990;5.926;2023-05-10T08:50:52;48.70;;;23.33;;
47335;SDS011;33068;51.990;5.926;2023-05-10T08:53:21;55.42;;;24.33;;
47335;SDS011;33068;51.990;5.926;2023-05-10T08:55:52;50.67;;;24.35;;
47335;SDS011;33068;51.990;5.926;2023-05-10T08:58:20;47.55;;;22.63;;
47335;SDS011;33068;51.990;5.926;2023-05-10T09:00:48;41.40;;;21.40;;
47335;SDS011;33068;51.990;5.926;2023-05-10T09:03:16;35.85;;;20.50;;
47335;SDS011;33068;51.990;5.926;2023-05-10T09:05:44;41.67;;;20.00;;
47335;SDS011;33068;51.990;5.926;2023-05-10T09:08:11;35.08;;;18.27;;
47335;SDS011;33068;51.990;5.926;2023-05-10T09:10:42;31.88;;;17.60;;
47335;SDS011;33068;51.990;5.926;2023-05-10T09:13:12;35.88;;;17.42;;
47335;SDS011;33068;51.990;5.926;2023-05-10T09:15:40;33.40;;;17.92;;
47335;SDS011;33068;51.990;5.926;2023-05-10T09:18:07;29.58;;;16.83;;
47335;SDS011;33068;51.990;5.926;2023-05-10T09:20:34;36.10;;;16.90;;
47335;SDS011;33068;51.990;5.926;2023-05-10T09:23:01;27.58;;;16.10;;
47335;SDS011;33068;51.990;5.926;2023-05-10T09:25:28;26.55;;;14.90;;
47335;SDS011;33068;51.990;5.926;2023-05-10T09:27:57;27.80;;;13.57;;
47335;SDS011;33068;51.990;5.926;2023-05-10T09:30:24;20.20;;;12.35;;
47335;SDS011;33068;51.990;5.926;2023-05-10T09:32:53;19.13;;;11.40;;
47335;SDS011;33068;51.990;5.926;2023-05-10T09:35:22;22.20;;;12.60;;
47335;SDS011;33068;51.990;5.926;2023-05-10T09:37:52;17.20;;;10.00;;
47335;SDS011;33068;51.990;5.926;2023-05-10T09:40:21;20.23;;;10.30;;
47335;SDS011;33068;51.990;5.926;2023-05-10T09:42:53;19.02;;;10.77;;
47335;SDS011;33068;51.990;5.926;2023-05-10T09:45:22;19.67;;;9.98;;
47335;SDS011;33068;51.990;5.926;2023-05-10T09:47:49;17.75;;;10.40;;
47335;SDS011;33068;51.990;5.926;2023-05-10T09:50:16;20.58;;;8.40;;
47335;SDS011;33068;51.990;5.926;2023-05-10T09:52:46;15.25;;;9.48;;
47335;SDS011;33068;51.990;5.926;2023-05-10T09:55:14;17.25;;;8.82;;
47335;SDS011;33068;51.990;5.926;2023-05-10T09:57:42;17.23;;;10.05;;
47335;SDS011;33068;51.990;5.926;2023-05-10T10:00:09;17.98;;;9.25;;
47335;SDS011;33068;51.990;5.926;2023-05-10T10:02:43;14.85;;;8.82;;
47335;SDS011;33068;51.990;5.926;2023-05-10T10:05:12;12.45;;;8.15;;
47335;SDS011;33068;51.990;5.926;2023-05-10T10:07:40;15.25;;;9.32;;
47335;SDS011;33068;51.990;5.926;2023-05-10T10:10:08;16.85;;;9.27;;
47335;SDS011;33068;51.990;5.926;2023-05-10T10:12:38;17.08;;;9.80;;
47335;SDS011;33068;51.990;5.926;2023-05-10T10:15:07;15.98;;;9.70;;
47335;SDS011;33068;51.990;5.926;2023-05-10T10:17:35;17.30;;;9.25;;
47335;SDS011;33068;51.990;5.926;2023-05-10T10:20:06;16.83;;;9.40;;
47335;SDS011;33068;51.990;5.926;2023-05-10T10:22:34;17.45;;;9.48;;
47335;SDS011;33068;51.990;5.926;2023-05-10T10:25:02;18.08;;;10.07;;
47335;SDS011;33068;51.990;5.926;2023-05-10T10:27:34;16.92;;;9.75;;
47335;SDS011;33068;51.990;5.926;2023-05-10T10:30:12;17.52;;;9.95;;
47335;SDS011;33068;51.990;5.926;2023-05-10T10:35:54;20.15;;;10.73;;
47335;SDS011;33068;51.990;5.926;2023-05-10T10:38:24;19.88;;;10.30;;
47335;SDS011;33068;51.990;5.926;2023-05-10T10:41:01;19.83;;;11.23;;
47335;SDS011;33068;51.990;5.926;2023-05-10T10:43:29;18.98;;;11.30;;
47335;SDS011;33068;51.990;5.926;2023-05-10T10:46:12;23.55;;;11.25;;
47335;SDS011;33068;51.990;5.926;2023-05-10T10:48:40;23.83;;;11.52;;
47335;SDS011;33068;51.990;5.926;2023-05-10T10:51:14;17.70;;;10.75;;
47335;SDS011;33068;51.990;5.926;2023-05-10T10:53:43;16.35;;;9.82;;
47335;SDS011;33068;51.990;5.926;2023-05-10T10:56:11;22.20;;;10.60;;
47335;SDS011;33068;51.990;5.926;2023-05-10T10:58:40;20.88;;;10.77;;
47335;SDS011;33068;51.990;5.926;2023-05-10T11:01:15;19.60;;;10.75;;
47335;SDS011;33068;51.990;5.926;2023-05-10T11:03:55;15.73;;;9.55;;
47335;SDS011;33068;51.990;5.926;2023-05-10T11:06:46;15.88;;;9.27;;
47335;SDS011;33068;51.990;5.926;2023-05-10T11:09:13;17.02;;;9.40;;
47335;SDS011;33068;51.990;5.926;2023-05-10T11:11:50;18.45;;;9.73;;
47335;SDS011;33068;51.990;5.926;2023-05-10T11:14:20;17.00;;;9.82;;
47335;SDS011;33068;51.990;5.926;2023-05-10T11:16:47;15.73;;;9.90;;
47335;SDS011;33068;51.990;5.926;2023-05-10T11:19:15;18.50;;;9.35;;
47335;SDS011;33068;51.990;5.926;2023-05-10T11:21:47;13.57;;;9.27;;
47335;SDS011;33068;51.990;5.926;2023-05-10T11:24:16;15.52;;;9.20;;
47335;SDS011;33068;51.990;5.926;2023-05-10T11:26:43;18.60;;;9.77;;
47335;SDS011;33068;51.990;5.926;2023-05-10T11:29:12;14.48;;;9.15;;
47335;SDS011;33068;51.990;5.926;2023-05-10T11:31:42;12.30;;;7.93;;
47335;SDS011;33068;51.990;5.926;2023-05-10T11:34:12;14.23;;;8.43;;
47335;SDS011;33068;51.990;5.926;2023-05-10T11:36:52;15.57;;;7.43;;
47335;SDS011;33068;51.990;5.926;2023-05-10T11:39:20;13.57;;;7.78;;
47335;SDS011;33068;51.990;5.926;2023-05-10T11:41:48;15.88;;;7.75;;
47335;SDS011;33068;51.990;5.926;2023-05-10T11:44:16;14.55;;;7.78;;
47335;SDS011;33068;51.990;5.926;2023-05-10T11:46:43;12.55;;;7.60;;
47335;SDS011;33068;51.990;5.926;2023-05-10T11:49:10;11.15;;;7.68;;
47335;SDS011;33068;51.990;5.926;2023-05-10T11:51:38;13.38;;;6.97;;
47335;SDS011;33068;51.990;5.926;2023-05-10T11:54:09;9.45;;;6.72;;
47335;SDS011;33068;51.990;5.926;2023-05-10T11:56:36;13.43;;;8.02;;
47335;SDS011;33068;51.990;5.926;2023-05-10T11:59:04;16.33;;;7.78;;
47335;SDS011;33068;51.990;5.926;2023-05-10T12:01:31;14.68;;;8.43;;
47335;SDS011;33068;51.990;5.926;2023-05-10T12:03:58;11.40;;;7.13;;
47335;SDS011;33068;51.990;5.926;2023-05-10T12:06:26;14.02;;;7.32;;
47335;SDS011;33068;51.990;5.926;2023-05-10T12:08:56;11.00;;;7.18;;
47335;SDS011;33068;51.990;5.926;2023-05-10T12:11:25;13.38;;;8.60;;
47335;SDS011;33068;51.990;5.926;2023-05-10T12:13:54;12.80;;;7.80;;
47335;SDS011;33068;51.990;5.926;2023-05-10T12:16:22;10.38;;;7.35;;
47335;SDS011;33068;51.990;5.926;2023-05-10T12:18:49;12.68;;;6.93;;
47335;SDS011;33068;51.990;5.926;2023-05-10T12:21:17;9.43;;;7.18;;
47335;SDS011;33068;51.990;5.926;2023-05-10T12:23:45;10.60;;;6.20;;
47335;SDS011;33068;51.990;5.926;2023-05-10T12:26:13;13.00;;;7.68;;
47335;SDS011;33068;51.990;5.926;2023-05-10T12:28:42;11.40;;;6.57;;
47335;SDS011;33068;51.990;5.926;2023-05-10T12:31:09;12.10;;;6.10;;
47335;SDS011;33068;51.990;5.926;2023-05-10T12:33:37;12.95;;;6.65;;
47335;SDS011;33068;51.990;5.926;2023-05-10T12:36:07;10.07;;;7.03;;
47335;SDS011;33068;51.990;5.926;2023-05-10T12:38:34;11.93;;;7.32;;
47335;SDS011;33068;51.990;5.926;2023-05-10T12:41:04;8.88;;;5.63;;
47335;SDS011;33068;51.990;5.926;2023-05-10T12:43:32;7.57;;;5.07;;
47335;SDS011;33068;51.990;5.926;2023-05-10T12:46:05;9.98;;;5.47;;
47335;SDS011;33068;51.990;5.926;2023-05-10T12:48:33;10.40;;;6.60;;
47335;SDS011;33068;51.990;5.926;2023-05-10T12:51:01;9.73;;;5.70;;
47335;SDS011;33068;51.990;5.926;2023-05-10T12:53:28;9.02;;;5.68;;
47335;SDS011;33068;51.990;5.926;2023-05-10T12:55:55;11.48;;;5.65;;
47335;SDS011;33068;51.990;5.926;2023-05-10T12:58:22;8.77;;;5.13;;
47335;SDS011;33068;51.990;5.926;2023-05-10T13:00:50;6.40;;;4.50;;
47335;SDS011;33068;51.990;5.926;2023-05-10T13:03:19;8.00;;;4.78;;
47335;SDS011;33068;51.990;5.926;2023-05-10T13:05:46;6.50;;;4.85;;
47335;SDS011;33068;51.990;5.926;2023-05-10T13:08:13;7.97;;;4.60;;
47335;SDS011;33068;51.990;5.926;2023-05-10T13:10:40;7.75;;;4.60;;
47335;SDS011;33068;51.990;5.926;2023-05-10T13:13:07;8.13;;;4.65;;
47335;SDS011;33068;51.990;5.926;2023-05-10T13:15:34;7.57;;;4.60;;
47335;SDS011;33068;51.990;5.926;2023-05-10T13:18:01;6.78;;;4.10;;
47335;SDS011;33068;51.990;5.926;2023-05-10T13:20:30;6.40;;;4.68;;
47335;SDS011;33068;51.990;5.926;2023-05-10T13:22:57;5.65;;;4.07;;
47335;SDS011;33068;51.990;5.926;2023-05-10T13:25:24;8.23;;;4.25;;
47335;SDS011;33068;51.990;5.926;2023-05-10T13:27:51;14.30;;;4.43;;
47335;SDS011;33068;51.990;5.926;2023-05-10T13:30:18;9.70;;;4.40;;
47335;SDS011;33068;51.990;5.926;2023-05-10T13:32:45;8.32;;;4.45;;
47335;SDS011;33068;51.990;5.926;2023-05-10T13:35:12;8.88;;;5.28;;
47335;SDS011;33068;51.990;5.926;2023-05-10T13:37:41;10.93;;;5.20;;
47335;SDS011;33068;51.990;5.926;2023-05-10T13:40:08;9.75;;;5.07;;
47335;SDS011;33068;51.990;5.926;2023-05-10T13:42:35;12.18;;;5.45;;
47335;SDS011;33068;51.990;5.926;2023-05-10T13:45:02;8.43;;;5.82;;
47335;SDS011;33068;51.990;5.926;2023-05-10T13:47:30;7.82;;;4.80;;
47335;SDS011;33068;51.990;5.926;2023-05-10T13:49:57;8.02;;;5.15;;
47335;SDS011;33068;51.990;5.926;2023-05-10T13:52:26;10.38;;;5.07;;
47335;SDS011;33068;51.990;5.926;2023-05-10T13:54:54;11.10;;;5.97;;
47335;SDS011;33068;51.990;5.926;2023-05-10T13:57:22;8.93;;;7.03;;
47335;SDS011;33068;51.990;5.926;2023-05-10T13:59:49;12.02;;;7.90;;
47335;SDS011;33068;51.990;5.926;2023-05-10T14:02:16;10.13;;;7.72;;
47335;SDS011;33068;51.990;5.926;2023-05-10T14:04:43;12.77;;;8.32;;
47335;SDS011;33068;51.990;5.926;2023-05-10T14:07:11;13.45;;;10.07;;
47335;SDS011;33068;51.990;5.926;2023-05-10T14:09:38;12.40;;;10.15;;
47335;SDS011;33068;51.990;5.926;2023-05-10T14:12:06;12.20;;;9.02;;
47335;SDS011;33068;51.990;5.926;2023-05-10T14:14:33;11.80;;;9.45;;
47335;SDS011;33068;51.990;5.926;2023-05-10T14:17:00;14.45;;;9.38;;
47335;SDS011;33068;51.990;5.926;2023-05-10T14:19:27;15.38;;;10.32;;
47335;SDS011;33068;51.990;5.926;2023-05-10T14:21:57;11.35;;;9.68;;
47335;SDS011;33068;51.990;5.926;2023-05-10T14:24:24;12.88;;;10.35;;
47335;SDS011;33068;51.990;5.926;2023-05-10T14:26:51;12.70;;;9.50;;
47335;SDS011;33068;51.990;5.926;2023-05-10T14:29:20;12.75;;;9.82;;
47335;SDS011;33068;51.990;5.926;2023-05-10T14:31:48;13.15;;;9.35;;
47335;SDS011;33068;51.990;5.926;2023-05-10T14:34:15;14.15;;;10.10;;
47335;SDS011;33068;51.990;5.926;2023-05-10T14:36:43;13.30;;;10.35;;
47335;SDS011;33068;51.990;5.926;2023-05-10T14:39:10;13.68;;;10.23;;
47335;SDS011;33068;51.990;5.926;2023-05-10T14:41:38;18.73;;;9.88;;
47335;SDS011;33068;51.990;5.926;2023-05-10T14:44:06;11.70;;;8.77;;
47335;SDS011;33068;51.990;5.926;2023-05-10T14:46:34;10.98;;;7.18;;
47335;SDS011;33068;51.990;5.926;2023-05-10T14:49:01;8.77;;;6.70;;
47335;SDS011;33068;51.990;5.926;2023-05-10T14:51:29;9.10;;;6.95;;
47335;SDS011;33068;51.990;5.926;2023-05-10T14:53:56;7.43;;;6.10;;
47335;SDS011;33068;51.990;5.926;2023-05-10T14:56:23;9.63;;;6.13;;
47335;SDS011;33068;51.990;5.926;2023-05-10T14:58:50;8.43;;;5.47;;
47335;SDS011;33068;51.990;5.926;2023-05-10T15:01:17;8.07;;;5.80;;
47335;SDS011;33068;51.990;5.926;2023-05-10T15:03:46;8.30;;;5.47;;
47335;SDS011;33068;51.990;5.926;2023-05-10T15:06:13;6.97;;;5.45;;
47335;SDS011;33068;51.990;5.926;2023-05-10T15:08:41;6.43;;;5.15;;
47335;SDS011;33068;51.990;5.926;2023-05-10T15:11:08;8.57;;;4.80;;
47335;SDS011;33068;51.990;5.926;2023-05-10T15:13:38;9.10;;;4.45;;
47335;SDS011;33068;51.990;5.926;2023-05-10T15:16:05;7.43;;;4.03;;
47335;SDS011;33068;51.990;5.926;2023-05-10T15:18:32;5.78;;;3.80;;
47335;SDS011;33068;51.990;5.926;2023-05-10T15:21:00;5.05;;;3.58;;
47335;SDS011;33068;51.990;5.926;2023-05-10T15:23:27;5.63;;;3.47;;
47335;SDS011;33068;51.990;5.926;2023-05-10T15:25:55;4.32;;;2.80;;
47335;SDS011;33068;51.990;5.926;2023-05-10T15:28:22;3.33;;;2.75;;
47335;SDS011;33068;51.990;5.926;2023-05-10T15:30:49;4.32;;;2.20;;
47335;SDS011;33068;51.990;5.926;2023-05-10T15:33:16;3.50;;;2.40;;
47335;SDS011;33068;51.990;5.926;2023-05-10T15:35:43;2.92;;;1.75;;
47335;SDS011;33068;51.990;5.926;2023-05-10T15:38:12;2.92;;;2.08;;
47335;SDS011;33068;51.990;5.926;2023-05-10T15:40:39;6.78;;;3.50;;
47335;SDS011;33068;51.990;5.926;2023-05-10T15:43:06;2.63;;;2.33;;
47335;SDS011;33068;51.990;5.926;2023-05-10T15:45:33;2.88;;;1.85;;
47335;SDS011;33068;51.990;5.926;2023-05-10T15:48:00;2.95;;;1.52;;
47335;SDS011;33068;51.990;5.926;2023-05-10T15:50:27;3.38;;;1.80;;
47335;SDS011;33068;51.990;5.926;2023-05-10T15:52:54;4.50;;;1.58;;
47335;SDS011;33068;51.990;5.926;2023-05-10T15:55:22;2.38;;;1.92;;
47335;SDS011;33068;51.990;5.926;2023-05-10T15:57:49;3.65;;;2.22;;
47335;SDS011;33068;51.990;5.926;2023-05-10T16:00:17;4.97;;;2.35;;
47335;SDS011;33068;51.990;5.926;2023-05-10T16:02:44;3.47;;;1.90;;
47335;SDS011;33068;51.990;5.926;2023-05-10T16:05:11;4.25;;;1.95;;
47335;SDS011;33068;51.990;5.926;2023-05-10T16:07:39;2.75;;;1.92;;
47335;SDS011;33068;51.990;5.926;2023-05-10T16:10:07;3.78;;;1.80;;
47335;SDS011;33068;51.990;5.926;2023-05-10T16:12:37;2.83;;;1.90;;
47335;SDS011;33068;51.990;5.926;2023-05-10T16:15:05;3.08;;;2.28;;
47335;SDS011;33068;51.990;5.926;2023-05-10T16:17:32;2.70;;;1.50;;
47335;SDS011;33068;51.990;5.926;2023-05-10T16:20:00;2.97;;;2.08;;
47335;SDS011;33068;51.990;5.926;2023-05-10T16:22:27;2.60;;;1.58;;
47335;SDS011;33068;51.990;5.926;2023-05-10T16:24:54;2.35;;;1.50;;
47335;SDS011;33068;51.990;5.926;2023-05-10T16:27:22;2.88;;;1.65;;
47335;SDS011;33068;51.990;5.926;2023-05-10T16:29:50;2.45;;;1.73;;
47335;SDS011;33068;51.990;5.926;2023-05-10T16:32:17;3.13;;;1.35;;
47335;SDS011;33068;51.990;5.926;2023-05-10T16:34:44;4.50;;;2.03;;
47335;SDS011;33068;51.990;5.926;2023-05-10T16:37:11;3.30;;;1.65;;
47335;SDS011;33068;51.990;5.926;2023-05-10T16:39:38;2.85;;;1.77;;
47335;SDS011;33068;51.990;5.926;2023-05-10T16:42:05;3.67;;;1.30;;
47335;SDS011;33068;51.990;5.926;2023-05-10T16:44:32;2.85;;;1.95;;